ADDS METAR Data INFO
IDs: Format: Raw Decoded Include TAF

Data at: 1509 UTC 23 Oct 2017

KM08 231455Z AUTO 26007KT 2SM BR SCT005 SCT013 BKN019 13/12 A2996 RMK A01
KM08 231435Z AUTO 25007KT 1 1/2SM BR BKN006 BKN013 BKN018 13/12 A2995 RMK A01
KM08 231415Z AUTO VRB04KT 1SM BR OVC006 12/11 A2995 RMK A01
KM08 231355Z AUTO 26005KT 4SM BR BKN005 OVC008 12/11 A2995 RMK A01
KM08 231335Z AUTO 24005KT 2 1/2SM BR OVC005 12/11 A2994 RMK A01
KM08 231315Z AUTO 28005KT 2SM BR OVC006 12/11 A2994 RMK A01
KM08 231255Z AUTO 27003KT 4SM BR OVC006 12/11 A2993 RMK A01
KM08 231235Z AUTO 27005G10KT 2 1/2SM BR BKN007 BKN012 OVC018 12/11 A2992 RMK A01
KM08 231215Z AUTO 28006G12KT 4SM BR BKN006 BKN010 OVC018 12/11 A2992 RMK A01
KM08 231155Z AUTO 26005KT 3SM BR OVC006 12/11 A2992 RMK A01
KM08 231135Z AUTO 27005KT 6SM BR OVC007 12/11 A2993 RMK A01
KM08 231115Z AUTO 26006KT 2 1/2SM BR OVC006 12/11 A2993 RMK A01
KM08 231055Z AUTO 26004KT 9SM BKN007 BKN013 OVC025 12/11 A2993 RMK A01
KM08 231035Z AUTO 00000KT 10SM FEW008 BKN016 OVC025 12/11 A2993 RMK A01
KM08 231015Z AUTO 27005G10KT 9SM SCT007 BKN010 OVC015 12/12 A2993 RMK A01
KM08 230955Z AUTO 27005KT 2 1/2SM BR BKN006 OVC010 13/12 A2992 RMK A01
KM08 230935Z AUTO 28004KT 2 1/2SM BR OVC006 13/12 A2992 RMK A01
KM08 230915Z AUTO VRB04KT 10SM BKN007 OVC011 13/12 A2993 RMK A01
KM08 230855Z AUTO VRB05KT 10SM BKN007 OVC011 13/12 A2992 RMK A01
KM08 230835Z AUTO 31006KT 3SM BR OVC006 13/12 A2992 RMK A01
KM08 230815Z AUTO 29005G11KT 2 1/2SM BR BKN007 OVC010 13/12 A2992 RMK A01
KM08 230755Z AUTO 28008G16KT 3SM BR BKN007 OVC010 13/12 A2992 RMK A01
KM08 230735Z AUTO 28006KT 4SM BR BKN005 OVC013 14/13 A2993 RMK A01
KM08 230715Z AUTO 00000KT 1 3/4SM BR 14/13 A2993 RMK A01
KM08 230655Z AUTO VRB05KT A2993 RMK A01
KM08 230635Z AUTO 27007G12KT 250V310 8SM OVC004 14/14 A2993 RMK A01
KM08 230615Z AUTO 27004KT 2 1/2SM BR OVC003 14/14 A2993 RMK A01
KM08 230555Z AUTO 00000KT 4SM BR OVC003 14/14 A2993 RMK A01
KM08 230520Z AUTO VRB04G10KT 7SM BKN005 BKN014 OVC018 14/13 A2995 RMK A01
KM08 230515Z AUTO 29005KT 5SM BR BKN006 OVC014 14/14 A2994 RMK A01
KM08 230455Z AUTO 26006KT 10SM OVC005 15/14 A2997 RMK A01
KM08 230435Z AUTO 27006G13KT 10SM OVC005 15/14 A2996 RMK A01
KM08 230415Z AUTO 00000KT 10SM OVC006 15/15 A2996 RMK A01
KM08 230355Z AUTO VRB03KT 10SM OVC006 15/15 A2996 RMK A01
KM08 230335Z AUTO 29005KT 10SM BKN006 OVC050 16/15 A2995 RMK A01
KM08 230315Z AUTO 26008G13KT 4SM BR BKN007 BKN012 OVC050 16/15 A2996 RMK A01
KM08 230255Z AUTO 25009KT 3SM BR BKN008 OVC012 17/16 A2996 RMK A01 P0001
KM08 230235Z AUTO 22005KT 4SM BR OVC008 17/16 A2996 RMK A01
KM08 230215Z AUTO 24006KT 10SM OVC008 17/16 A2996 RMK A01
KM08 230155Z AUTO 24007G15KT 3SM BR OVC007 17/16 A2995 RMK A01 P0003
KM08 230135Z AUTO 24007KT 2 1/2SM BR BKN007 BKN012 OVC022 17/17 A2996 RMK A01
KM08 230115Z AUTO 25008KT 4SM BR SCT008 BKN014 OVC022 18/17 A2995 RMK A01
KM08 230055Z AUTO 26009G14KT 4SM BR SCT005 BKN010 OVC015 18/17 A2995 RMK A01 P0021
KM08 230035Z AUTO 23005KT 3SM BR BKN006 BKN010 OVC021 19/18 A2995 RMK A01
KM08 230015Z AUTO 23014G21KT 2SM BR SCT005 BKN009 OVC014 20/19 A2995 RMK A01
KM08 222355Z AUTO 17006KT 7SM SCT015 BKN023 OVC060 21/19 A2993 RMK A01 P0001
KM08 222335Z AUTO 15005KT 10SM FEW016 SCT050 OVC060 21/19 A2992 RMK A01
KM08 222315Z AUTO 14007KT 7SM FEW037 BKN050 OVC070 21/19 A2993 RMK A01
KM08 222255Z AUTO 12006KT 10SM OVC049 21/19 A2993 RMK A01
KM08 222235Z AUTO 12005KT 10SM BKN050 OVC085 22/19 A2994 RMK A01
KM08 222215Z AUTO 12004KT 8SM FEW019 SCT060 BKN075 22/19 A2994 RMK A01
KM08 222155Z AUTO 13007KT 10SM SCT019 OVC060 22/19 A2995 RMK A01
KM08 222135Z AUTO 14008KT 10SM FEW019 BKN060 BKN100 23/19 A2996 RMK A01
KM08 222115Z AUTO 14007KT 10SM FEW019 FEW065 SCT100 23/19 A2996 RMK A01
KM08 222055Z AUTO 14008KT 10SM SCT020 SCT025 SCT030 23/19 A2996 RMK A01
KM08 222035Z AUTO 14010KT 10SM BKN024 BKN029 23/19 A2997 RMK A01
KM08 222015Z AUTO 14009G15KT 100V170 10SM BKN025 BKN120 24/19 A2997 RMK A01
KM08 221955Z AUTO 16011G20KT 10SM FEW022 SCT032 BKN120 24/19 A2997 RMK A01
KM08 221935Z AUTO 16010KT 10SM SCT025 OVC032 24/19 A2998 RMK A01
KM08 221915Z AUTO 17009G18KT 140V200 10SM BKN026 OVC032 24/18 A2999 RMK A01
KM08 221855Z AUTO 16011G18KT 10SM BKN026 OVC032 24/19 A2999 RMK A01
KM08 221835Z AUTO 15010G19KT 10SM BKN025 BKN031 OVC055 25/19 A2999 RMK A01
KM08 221815Z AUTO 15010G17KT 10SM SCT026 SCT034 BKN060 25/19 A3000 RMK A01
KM08 221755Z AUTO 15011G20KT 110V180 10SM SCT026 OVC055 25/18 A3000 RMK A01
KM08 221735Z AUTO 14010G19KT 10SM SCT025 BKN060 OVC075 24/18 A3001 RMK A01
KM08 221715Z AUTO 13012G17KT 10SM SCT025 SCT075 24/18 A3003 RMK A01
KM08 221655Z AUTO 13012KT 10SM FEW025 SCT070 23/17 A3002 RMK A01
KM08 221635Z AUTO 15011G19KT 10SM FEW024 FEW060 OVC070 23/17 A3003 RMK A01
KM08 221615Z AUTO 13010G17KT 090V160 10SM SCT055 OVC065 23/17 A3004 RMK A01
KM08 221555Z AUTO 14012G19KT 10SM OVC060 22/17 A3004 RMK A01
KM08 221535Z AUTO 15013KT 10SM SCT043 OVC060 23/17 A3005 RMK A01
KM08 221515Z AUTO 15011G19KT 10SM OVC042 22/17 A3005 RMK A01
KM08 221455Z AUTO 15010G17KT 10SM BKN042 BKN050 22/17 A3004 RMK A01
KM08 221435Z AUTO 15012G17KT 10SM FEW045 22/16 A3004 RMK A01
KM08 221415Z AUTO 14013KT 10SM CLR 22/16 A3003 RMK A01
KM08 221355Z AUTO 15012G22KT 10SM CLR 22/17 A3004 RMK A01
KM08 221335Z AUTO 14011G18KT 10SM CLR 21/17 A3003 RMK A01
KM08 221315Z AUTO 14009G17KT 10SM CLR 20/16 A3003 RMK A01
KM08 221255Z AUTO 13010G15KT 10SM CLR 19/16 A3002 RMK A01
KM08 221235Z AUTO 13009G15KT 10SM SCT110 19/16 A3002 RMK A01
KM08 221215Z AUTO 13008KT 10SM SCT090 OVC110 19/16 A3003 RMK A01
KM08 221155Z AUTO 12007KT 10SM FEW090 BKN110 19/16 A3004 RMK A01
KM08 221135Z AUTO 14007G14KT 10SM FEW044 SCT095 19/16 A3004 RMK A01
KM08 221115Z AUTO 13007G13KT 10SM FEW042 FEW110 20/16 A3004 RMK A01
KM08 221055Z AUTO 13008G14KT 10SM FEW041 20/16 A3004 RMK A01
KM08 221035Z AUTO 13007G12KT 10SM CLR 20/16 A3005 RMK A01
KM08 221015Z AUTO 14007KT 10SM FEW046 FEW120 20/16 A3005 RMK A01
KM08 220955Z AUTO 13008G13KT 10SM FEW039 SCT048 SCT055 20/16 A3003 RMK A01
KM08 220935Z AUTO 13005KT 10SM BKN037 OVC047 20/17 A3004 RMK A01
KM08 220915Z AUTO 15008G13KT 10SM SCT035 BKN042 OVC080 20/17 A3004 RMK A01
KM08 220855Z AUTO 13007G13KT 10SM BKN075 OVC085 20/17 A3004 RMK A01
KM08 220835Z AUTO 13008KT 10SM OVC070 20/17 A3004 RMK A01
KM08 220815Z AUTO 14008G13KT 10SM SCT037 BKN045 OVC070 20/17 A3004 RMK A01
KM08 220755Z AUTO 13007G13KT 10SM FEW024 SCT038 BKN044 20/17 A3004 RMK A01
KM08 220735Z AUTO 13008KT 10SM SCT042 BKN049 20/17 A3003 RMK A01
KM08 220715Z AUTO 14010KT 10SM SCT036 BKN043 BKN100 21/17 A3004 RMK A01
KM08 220655Z AUTO 14009KT 100V170 10SM FEW034 BKN042 BKN100 20/17 A3006 RMK A01
KM08 220635Z AUTO 14007KT 10SM SCT034 BKN039 OVC100 20/17 A3007 RMK A01
KM08 220615Z AUTO 14008KT 10SM FEW039 SCT045 BKN110 21/17 A3008 RMK A01
KM08 220555Z AUTO 13007KT 10SM FEW043 SCT048 SCT110 21/17 A3008 RMK A01
KM08 220535Z AUTO 13008KT 10SM SCT046 21/17 A3008 RMK A01
KM08 220515Z AUTO 14009KT 10SM BKN047 20/17 A3008 RMK A01
KM08 220455Z AUTO 15008KT 10SM FEW037 SCT045 20/17 A3009 RMK A01
KM08 220435Z AUTO 14008G13KT 10SM SCT038 20/17 A3009 RMK A01
KM08 220415Z AUTO 13006KT 10SM FEW036 SCT042 20/17 A3009 RMK A01
KM08 220355Z AUTO 14006KT 10SM FEW040 20/17 A3010 RMK A01
KM08 220335Z AUTO 13007KT 10SM CLR 20/17 A3010 RMK A01
KM08 220315Z AUTO 13006KT 10SM CLR 20/17 A3010 RMK A01